sensor_id;sensor_type;location;lat;lon;timestamp;P1;durP1;ratioP1;P2;durP2;ratioP2
51943;SDS011;37969;53.132;6.370;2023-03-03T00:02:19;569.05;;;40.13;;
51943;SDS011;37969;53.132;6.370;2023-03-03T00:04:45;495.50;;;36.25;;
51943;SDS011;37969;53.132;6.370;2023-03-03T00:07:11;495.20;;;34.67;;
51943;SDS011;37969;53.132;6.370;2023-03-03T00:09:45;538.00;;;38.47;;
51943;SDS011;37969;53.132;6.370;2023-03-03T00:12:23;322.55;;;27.00;;
51943;SDS011;37969;53.132;6.370;2023-03-03T00:14:49;379.92;;;29.35;;
51943;SDS011;37969;53.132;6.370;2023-03-03T00:17:24;430.58;;;32.80;;
51943;SDS011;37969;53.132;6.370;2023-03-03T00:19:50;340.20;;;26.55;;
51943;SDS011;37969;53.132;6.370;2023-03-03T00:22:23;433.58;;;29.75;;
51943;SDS011;37969;53.132;6.370;2023-03-03T00:24:51;402.67;;;29.10;;
51943;SDS011;37969;53.132;6.370;2023-03-03T00:27:22;351.23;;;29.00;;
51943;SDS011;37969;53.132;6.370;2023-03-03T00:29:52;444.58;;;33.47;;
51943;SDS011;37969;53.132;6.370;2023-03-03T00:32:22;271.00;;;26.30;;
51943;SDS011;37969;53.132;6.370;2023-03-03T00:34:49;268.80;;;25.85;;
51943;SDS011;37969;53.132;6.370;2023-03-03T00:39:45;227.50;;;46.53;;
51943;SDS011;37969;53.132;6.370;2023-03-03T00:42:12;222.32;;;34.10;;
51943;SDS011;37969;53.132;6.370;2023-03-03T00:44:40;256.77;;;38.42;;
51943;SDS011;37969;53.132;6.370;2023-03-03T00:47:17;162.88;;;25.02;;
51943;SDS011;37969;53.132;6.370;2023-03-03T00:49:49;342.00;;;39.05;;
51943;SDS011;37969;53.132;6.370;2023-03-03T00:52:16;338.15;;;26.90;;
51943;SDS011;37969;53.132;6.370;2023-03-03T00:54:42;311.85;;;25.08;;
51943;SDS011;37969;53.132;6.370;2023-03-03T00:57:09;234.88;;;22.77;;
51943;SDS011;37969;53.132;6.370;2023-03-03T00:59:37;354.85;;;25.75;;
51943;SDS011;37969;53.132;6.370;2023-03-03T01:02:04;395.52;;;26.70;;
51943;SDS011;37969;53.132;6.370;2023-03-03T01:04:30;411.40;;;69.35;;
51943;SDS011;37969;53.132;6.370;2023-03-03T01:06:56;432.48;;;39.55;;
51943;SDS011;37969;53.132;6.370;2023-03-03T01:09:22;558.60;;;37.67;;
51943;SDS011;37969;53.132;6.370;2023-03-03T01:11:49;478.17;;;28.73;;
51943;SDS011;37969;53.132;6.370;2023-03-03T01:14:15;360.33;;;24.00;;
51943;SDS011;37969;53.132;6.370;2023-03-03T01:16:42;313.38;;;22.38;;
51943;SDS011;37969;53.132;6.370;2023-03-03T01:19:08;524.85;;;29.25;;
51943;SDS011;37969;53.132;6.370;2023-03-03T01:21:34;246.57;;;25.35;;
51943;SDS011;37969;53.132;6.370;2023-03-03T01:24:00;418.55;;;41.63;;
51943;SDS011;37969;53.132;6.370;2023-03-03T01:26:26;373.65;;;29.75;;
51943;SDS011;37969;53.132;6.370;2023-03-03T01:28:52;511.33;;;27.25;;
51943;SDS011;37969;53.132;6.370;2023-03-03T01:31:19;628.00;;;32.25;;
51943;SDS011;37969;53.132;6.370;2023-03-03T01:33:45;392.55;;;22.48;;
51943;SDS011;37969;53.132;6.370;2023-03-03T01:36:11;502.08;;;28.40;;
51943;SDS011;37969;53.132;6.370;2023-03-03T01:38:37;206.50;;;27.10;;
51943;SDS011;37969;53.132;6.370;2023-03-03T01:41:04;339.33;;;45.67;;
51943;SDS011;37969;53.132;6.370;2023-03-03T01:43:31;280.50;;;21.08;;
51943;SDS011;37969;53.132;6.370;2023-03-03T01:48:32;391.02;;;27.67;;
51943;SDS011;37969;53.132;6.370;2023-03-03T01:51:00;595.88;;;34.42;;
51943;SDS011;37969;53.132;6.370;2023-03-03T01:53:41;494.73;;;45.22;;
51943;SDS011;37969;53.132;6.370;2023-03-03T01:56:08;540.05;;;31.25;;
51943;SDS011;37969;53.132;6.370;2023-03-03T01:58:36;310.35;;;53.40;;
51943;SDS011;37969;53.132;6.370;2023-03-03T02:01:04;398.57;;;75.47;;
51943;SDS011;37969;53.132;6.370;2023-03-03T02:03:32;353.15;;;23.60;;
51943;SDS011;37969;53.132;6.370;2023-03-03T02:06:00;512.33;;;50.25;;
51943;SDS011;37969;53.132;6.370;2023-03-03T02:08:29;314.55;;;18.90;;
51943;SDS011;37969;53.132;6.370;2023-03-03T02:10:56;371.90;;;22.57;;
51943;SDS011;37969;53.132;6.370;2023-03-03T02:13:22;274.38;;;21.17;;
51943;SDS011;37969;53.132;6.370;2023-03-03T02:15:48;338.50;;;20.13;;
51943;SDS011;37969;53.132;6.370;2023-03-03T02:18:15;284.25;;;21.02;;
51943;SDS011;37969;53.132;6.370;2023-03-03T02:20:45;395.17;;;25.75;;
51943;SDS011;37969;53.132;6.370;2023-03-03T02:23:12;562.60;;;32.38;;
51943;SDS011;37969;53.132;6.370;2023-03-03T02:28:08;237.95;;;17.00;;
51943;SDS011;37969;53.132;6.370;2023-03-03T02:30:36;250.43;;;34.42;;
51943;SDS011;37969;53.132;6.370;2023-03-03T02:33:03;332.73;;;21.15;;
51943;SDS011;37969;53.132;6.370;2023-03-03T02:35:31;273.30;;;18.23;;
51943;SDS011;37969;53.132;6.370;2023-03-03T02:38:10;166.80;;;14.20;;
51943;SDS011;37969;53.132;6.370;2023-03-03T02:40:39;280.20;;;19.65;;
51943;SDS011;37969;53.132;6.370;2023-03-03T02:43:07;301.90;;;21.35;;
51943;SDS011;37969;53.132;6.370;2023-03-03T02:45:40;142.93;;;14.23;;
51943;SDS011;37969;53.132;6.370;2023-03-03T02:48:06;276.00;;;20.92;;
51943;SDS011;37969;53.132;6.370;2023-03-03T02:50:32;123.93;;;15.27;;
51943;SDS011;37969;53.132;6.370;2023-03-03T02:52:58;220.57;;;23.05;;
51943;SDS011;37969;53.132;6.370;2023-03-03T02:55:25;151.93;;;29.40;;
51943;SDS011;37969;53.132;6.370;2023-03-03T02:57:51;146.35;;;19.80;;
51943;SDS011;37969;53.132;6.370;2023-03-03T03:00:17;80.22;;;16.52;;
51943;SDS011;37969;53.132;6.370;2023-03-03T03:02:43;66.07;;;13.73;;
51943;SDS011;37969;53.132;6.370;2023-03-03T03:05:10;185.88;;;37.50;;
51943;SDS011;37969;53.132;6.370;2023-03-03T03:07:36;125.63;;;17.73;;
51943;SDS011;37969;53.132;6.370;2023-03-03T03:10:02;72.65;;;13.63;;
51943;SDS011;37969;53.132;6.370;2023-03-03T03:12:28;118.93;;;24.50;;
51943;SDS011;37969;53.132;6.370;2023-03-03T03:14:54;282.08;;;44.70;;
51943;SDS011;37969;53.132;6.370;2023-03-03T03:17:21;69.10;;;14.90;;
51943;SDS011;37969;53.132;6.370;2023-03-03T03:19:47;90.35;;;16.80;;
51943;SDS011;37969;53.132;6.370;2023-03-03T03:22:13;48.85;;;14.50;;
51943;SDS011;37969;53.132;6.370;2023-03-03T03:24:39;91.32;;;17.80;;
51943;SDS011;37969;53.132;6.370;2023-03-03T03:27:05;87.00;;;22.15;;
51943;SDS011;37969;53.132;6.370;2023-03-03T03:29:33;50.33;;;15.65;;
51943;SDS011;37969;53.132;6.370;2023-03-03T03:32:00;43.47;;;15.45;;
51943;SDS011;37969;53.132;6.370;2023-03-03T03:34:26;28.42;;;13.15;;
51943;SDS011;37969;53.132;6.370;2023-03-03T03:36:52;25.13;;;12.52;;
51943;SDS011;37969;53.132;6.370;2023-03-03T03:39:18;31.98;;;13.43;;
51943;SDS011;37969;53.132;6.370;2023-03-03T03:41:44;30.23;;;14.25;;
51943;SDS011;37969;53.132;6.370;2023-03-03T03:44:10;44.28;;;14.43;;
51943;SDS011;37969;53.132;6.370;2023-03-03T03:46:36;40.47;;;16.52;;
51943;SDS011;37969;53.132;6.370;2023-03-03T03:49:03;45.33;;;16.85;;
51943;SDS011;37969;53.132;6.370;2023-03-03T03:51:29;54.67;;;16.75;;
51943;SDS011;37969;53.132;6.370;2023-03-03T03:53:55;90.03;;;18.10;;
51943;SDS011;37969;53.132;6.370;2023-03-03T03:56:21;328.77;;;62.67;;
51943;SDS011;37969;53.132;6.370;2023-03-03T03:58:47;167.48;;;21.60;;
51943;SDS011;37969;53.132;6.370;2023-03-03T04:01:14;124.05;;;18.10;;
51943;SDS011;37969;53.132;6.370;2023-03-03T04:03:40;242.52;;;39.13;;
51943;SDS011;37969;53.132;6.370;2023-03-03T04:06:06;124.55;;;19.23;;
51943;SDS011;37969;53.132;6.370;2023-03-03T04:08:32;169.40;;;18.23;;
51943;SDS011;37969;53.132;6.370;2023-03-03T04:10:58;88.30;;;17.10;;
51943;SDS011;37969;53.132;6.370;2023-03-03T04:13:25;109.57;;;18.35;;
51943;SDS011;37969;53.132;6.370;2023-03-03T04:15:53;84.55;;;19.60;;
51943;SDS011;37969;53.132;6.370;2023-03-03T04:18:19;28.75;;;15.50;;
51943;SDS011;37969;53.132;6.370;2023-03-03T04:20:45;26.33;;;14.30;;
51943;SDS011;37969;53.132;6.370;2023-03-03T04:23:11;26.90;;;16.33;;
51943;SDS011;37969;53.132;6.370;2023-03-03T04:25:38;27.90;;;16.83;;
51943;SDS011;37969;53.132;6.370;2023-03-03T04:28:05;28.52;;;16.83;;
51943;SDS011;37969;53.132;6.370;2023-03-03T04:30:32;29.10;;;16.83;;
51943;SDS011;37969;53.132;6.370;2023-03-03T04:32:58;28.60;;;15.93;;
51943;SDS011;37969;53.132;6.370;2023-03-03T04:35:24;42.08;;;17.10;;
51943;SDS011;37969;53.132;6.370;2023-03-03T04:37:51;45.20;;;17.67;;
51943;SDS011;37969;53.132;6.370;2023-03-03T04:40:17;57.92;;;17.52;;
51943;SDS011;37969;53.132;6.370;2023-03-03T04:42:43;33.10;;;15.02;;
51943;SDS011;37969;53.132;6.370;2023-03-03T04:45:09;23.10;;;13.52;;
51943;SDS011;37969;53.132;6.370;2023-03-03T04:47:35;26.08;;;14.43;;
51943;SDS011;37969;53.132;6.370;2023-03-03T04:50:02;23.55;;;13.98;;
51943;SDS011;37969;53.132;6.370;2023-03-03T04:52:28;24.10;;;14.48;;
51943;SDS011;37969;53.132;6.370;2023-03-03T04:54:54;36.63;;;16.88;;
51943;SDS011;37969;53.132;6.370;2023-03-03T04:57:20;30.15;;;16.25;;
51943;SDS011;37969;53.132;6.370;2023-03-03T04:59:46;24.38;;;14.40;;
51943;SDS011;37969;53.132;6.370;2023-03-03T05:02:13;26.23;;;14.80;;
51943;SDS011;37969;53.132;6.370;2023-03-03T05:04:39;27.08;;;14.77;;
51943;SDS011;37969;53.132;6.370;2023-03-03T05:07:05;25.92;;;15.20;;
51943;SDS011;37969;53.132;6.370;2023-03-03T05:09:32;20.52;;;13.20;;
51943;SDS011;37969;53.132;6.370;2023-03-03T05:11:58;22.73;;;12.93;;
51943;SDS011;37969;53.132;6.370;2023-03-03T05:14:25;23.92;;;13.85;;
51943;SDS011;37969;53.132;6.370;2023-03-03T05:16:51;22.20;;;13.88;;
51943;SDS011;37969;53.132;6.370;2023-03-03T05:19:18;26.73;;;14.82;;
51943;SDS011;37969;53.132;6.370;2023-03-03T05:21:44;28.35;;;15.05;;
51943;SDS011;37969;53.132;6.370;2023-03-03T05:24:10;31.23;;;15.82;;
51943;SDS011;37969;53.132;6.370;2023-03-03T05:26:37;42.50;;;19.42;;
51943;SDS011;37969;53.132;6.370;2023-03-03T05:29:04;41.60;;;19.50;;
51943;SDS011;37969;53.132;6.370;2023-03-03T05:31:30;44.97;;;20.67;;
51943;SDS011;37969;53.132;6.370;2023-03-03T05:33:56;32.90;;;16.90;;
51943;SDS011;37969;53.132;6.370;2023-03-03T05:36:22;25.80;;;15.23;;
51943;SDS011;37969;53.132;6.370;2023-03-03T05:38:48;24.95;;;14.40;;
51943;SDS011;37969;53.132;6.370;2023-03-03T05:41:15;25.50;;;14.68;;
51943;SDS011;37969;53.132;6.370;2023-03-03T05:43:41;28.48;;;15.32;;
51943;SDS011;37969;53.132;6.370;2023-03-03T05:46:07;36.47;;;16.83;;
51943;SDS011;37969;53.132;6.370;2023-03-03T05:48:33;33.60;;;16.50;;
51943;SDS011;37969;53.132;6.370;2023-03-03T05:50:59;33.35;;;16.35;;
51943;SDS011;37969;53.132;6.370;2023-03-03T05:53:26;34.85;;;17.02;;
51943;SDS011;37969;53.132;6.370;2023-03-03T05:55:53;30.25;;;15.52;;
51943;SDS011;37969;53.132;6.370;2023-03-03T05:58:19;26.92;;;15.38;;
51943;SDS011;37969;53.132;6.370;2023-03-03T06:00:45;24.33;;;13.88;;
51943;SDS011;37969;53.132;6.370;2023-03-03T06:03:12;21.25;;;13.30;;
51943;SDS011;37969;53.132;6.370;2023-03-03T06:05:38;22.17;;;13.15;;
51943;SDS011;37969;53.132;6.370;2023-03-03T06:08:04;25.80;;;15.25;;
51943;SDS011;37969;53.132;6.370;2023-03-03T06:10:31;26.42;;;14.30;;
51943;SDS011;37969;53.132;6.370;2023-03-03T06:12:57;23.98;;;14.82;;
51943;SDS011;37969;53.132;6.370;2023-03-03T06:15:23;25.73;;;14.50;;
51943;SDS011;37969;53.132;6.370;2023-03-03T06:17:49;23.35;;;13.55;;
51943;SDS011;37969;53.132;6.370;2023-03-03T06:20:15;22.30;;;13.27;;
51943;SDS011;37969;53.132;6.370;2023-03-03T06:22:42;17.45;;;11.80;;
51943;SDS011;37969;53.132;6.370;2023-03-03T06:25:08;19.75;;;13.00;;
51943;SDS011;37969;53.132;6.370;2023-03-03T06:27:34;24.33;;;14.65;;
51943;SDS011;37969;53.132;6.370;2023-03-03T06:30:01;23.20;;;13.60;;
51943;SDS011;37969;53.132;6.370;2023-03-03T06:32:27;19.52;;;12.90;;
51943;SDS011;37969;53.132;6.370;2023-03-03T06:34:53;20.15;;;13.52;;
51943;SDS011;37969;53.132;6.370;2023-03-03T06:37:20;23.58;;;13.52;;
51943;SDS011;37969;53.132;6.370;2023-03-03T06:39:46;19.10;;;12.40;;
51943;SDS011;37969;53.132;6.370;2023-03-03T06:42:12;16.25;;;12.05;;
51943;SDS011;37969;53.132;6.370;2023-03-03T06:44:38;18.90;;;11.43;;
51943;SDS011;37969;53.132;6.370;2023-03-03T06:47:04;17.80;;;12.05;;
51943;SDS011;37969;53.132;6.370;2023-03-03T06:49:30;23.27;;;12.57;;
51943;SDS011;37969;53.132;6.370;2023-03-03T06:51:58;20.90;;;12.93;;
51943;SDS011;37969;53.132;6.370;2023-03-03T06:54:27;19.17;;;12.95;;
51943;SDS011;37969;53.132;6.370;2023-03-03T06:56:56;20.02;;;12.93;;
51943;SDS011;37969;53.132;6.370;2023-03-03T06:59:22;18.48;;;12.73;;
51943;SDS011;37969;53.132;6.370;2023-03-03T07:01:49;15.90;;;11.27;;
51943;SDS011;37969;53.132;6.370;2023-03-03T07:04:21;17.67;;;11.77;;
51943;SDS011;37969;53.132;6.370;2023-03-03T07:06:50;17.55;;;12.27;;
51943;SDS011;37969;53.132;6.370;2023-03-03T07:09:19;20.17;;;12.20;;
51943;SDS011;37969;53.132;6.370;2023-03-03T07:11:46;21.45;;;12.75;;
51943;SDS011;37969;53.132;6.370;2023-03-03T07:14:14;19.33;;;12.25;;
51943;SDS011;37969;53.132;6.370;2023-03-03T07:16:41;18.23;;;12.93;;
51943;SDS011;37969;53.132;6.370;2023-03-03T07:19:18;24.67;;;12.40;;
51943;SDS011;37969;53.132;6.370;2023-03-03T07:21:45;17.95;;;12.55;;
51943;SDS011;37969;53.132;6.370;2023-03-03T07:24:16;17.80;;;12.98;;
51943;SDS011;37969;53.132;6.370;2023-03-03T07:26:43;22.08;;;14.35;;
51943;SDS011;37969;53.132;6.370;2023-03-03T07:31:40;22.02;;;13.13;;
51943;SDS011;37969;53.132;6.370;2023-03-03T07:34:14;18.88;;;12.73;;
51943;SDS011;37969;53.132;6.370;2023-03-03T07:36:42;23.55;;;14.27;;
51943;SDS011;37969;53.132;6.370;2023-03-03T07:39:18;25.65;;;16.60;;
51943;SDS011;37969;53.132;6.370;2023-03-03T07:41:46;24.52;;;16.55;;
51943;SDS011;37969;53.132;6.370;2023-03-03T07:44:17;25.92;;;16.38;;
51943;SDS011;37969;53.132;6.370;2023-03-03T07:46:46;34.92;;;20.10;;
51943;SDS011;37969;53.132;6.370;2023-03-03T07:49:21;39.17;;;23.98;;
51943;SDS011;37969;53.132;6.370;2023-03-03T07:51:49;38.88;;;23.90;;
51943;SDS011;37969;53.132;6.370;2023-03-03T07:56:44;28.70;;;18.02;;
51943;SDS011;37969;53.132;6.370;2023-03-03T07:59:19;29.02;;;17.42;;
51943;SDS011;37969;53.132;6.370;2023-03-03T08:01:46;30.90;;;19.42;;
51943;SDS011;37969;53.132;6.370;2023-03-03T08:06:48;33.30;;;16.98;;
51943;SDS011;37969;53.132;6.370;2023-03-03T08:11:49;23.98;;;16.63;;
51943;SDS011;37969;53.132;6.370;2023-03-03T08:14:18;30.67;;;17.05;;
51943;SDS011;37969;53.132;6.370;2023-03-03T08:16:49;26.70;;;17.73;;
51943;SDS011;37969;53.132;6.370;2023-03-03T08:19:16;34.63;;;17.50;;
51943;SDS011;37969;53.132;6.370;2023-03-03T08:21:42;34.58;;;19.17;;
51943;SDS011;37969;53.132;6.370;2023-03-03T08:24:09;27.02;;;17.45;;
51943;SDS011;37969;53.132;6.370;2023-03-03T08:26:36;27.60;;;18.75;;
51943;SDS011;37969;53.132;6.370;2023-03-03T08:29:02;25.85;;;17.42;;
51943;SDS011;37969;53.132;6.370;2023-03-03T08:31:28;23.85;;;16.40;;
51943;SDS011;37969;53.132;6.370;2023-03-03T08:33:54;28.30;;;16.23;;
51943;SDS011;37969;53.132;6.370;2023-03-03T08:36:21;25.17;;;15.02;;
51943;SDS011;37969;53.132;6.370;2023-03-03T08:38:47;26.25;;;15.85;;
51943;SDS011;37969;53.132;6.370;2023-03-03T08:41:13;26.85;;;15.85;;
51943;SDS011;37969;53.132;6.370;2023-03-03T08:43:39;23.27;;;14.63;;
51943;SDS011;37969;53.132;6.370;2023-03-03T08:46:06;27.40;;;17.13;;
51943;SDS011;37969;53.132;6.370;2023-03-03T08:48:34;24.02;;;15.98;;
51943;SDS011;37969;53.132;6.370;2023-03-03T08:51:00;23.77;;;16.40;;
51943;SDS011;37969;53.132;6.370;2023-03-03T08:53:27;25.15;;;16.35;;
51943;SDS011;37969;53.132;6.370;2023-03-03T08:55:53;19.48;;;14.68;;
51943;SDS011;37969;53.132;6.370;2023-03-03T08:58:20;26.67;;;14.20;;
51943;SDS011;37969;53.132;6.370;2023-03-03T09:00:46;22.48;;;15.23;;
51943;SDS011;37969;53.132;6.370;2023-03-03T09:03:12;18.98;;;13.52;;
51943;SDS011;37969;53.132;6.370;2023-03-03T09:05:38;20.73;;;14.20;;
51943;SDS011;37969;53.132;6.370;2023-03-03T09:08:05;17.50;;;12.77;;
51943;SDS011;37969;53.132;6.370;2023-03-03T09:10:32;27.10;;;13.27;;
51943;SDS011;37969;53.132;6.370;2023-03-03T09:13:06;19.40;;;12.43;;
51943;SDS011;37969;53.132;6.370;2023-03-03T09:15:33;23.80;;;14.00;;
51943;SDS011;37969;53.132;6.370;2023-03-03T09:20:41;22.00;;;12.90;;
51943;SDS011;37969;53.132;6.370;2023-03-03T09:23:38;19.77;;;13.07;;
51943;SDS011;37969;53.132;6.370;2023-03-03T09:25:55;23.20;;;14.23;;
51943;SDS011;37969;53.132;6.370;2023-03-03T09:28:22;21.50;;;14.25;;
51943;SDS011;37969;53.132;6.370;2023-03-03T09:30:49;24.83;;;15.15;;
51943;SDS011;37969;53.132;6.370;2023-03-03T09:33:27;21.20;;;15.00;;
51943;SDS011;37969;53.132;6.370;2023-03-03T09:35:57;21.90;;;15.90;;
51943;SDS011;37969;53.132;6.370;2023-03-03T09:38:27;20.95;;;14.00;;
51943;SDS011;37969;53.132;6.370;2023-03-03T09:40:55;18.92;;;12.98;;
51943;SDS011;37969;53.132;6.370;2023-03-03T09:43:31;16.52;;;12.82;;
51943;SDS011;37969;53.132;6.370;2023-03-03T09:46:15;28.23;;;15.10;;
51943;SDS011;37969;53.132;6.370;2023-03-03T09:48:48;16.40;;;12.05;;
51943;SDS011;37969;53.132;6.370;2023-03-03T09:51:22;15.15;;;10.38;;
51943;SDS011;37969;53.132;6.370;2023-03-03T09:56:23;16.67;;;9.85;;
51943;SDS011;37969;53.132;6.370;2023-03-03T10:01:23;15.50;;;9.00;;
51943;SDS011;37969;53.132;6.370;2023-03-03T10:04:06;14.00;;;10.13;;
51943;SDS011;37969;53.132;6.370;2023-03-03T10:11:37;16.55;;;13.40;;
51943;SDS011;37969;53.132;6.370;2023-03-03T10:14:11;9.90;;;8.77;;
51943;SDS011;37969;53.132;6.370;2023-03-03T10:21:38;12.95;;;8.20;;
51943;SDS011;37969;53.132;6.370;2023-03-03T10:24:18;9.35;;;5.10;;
51943;SDS011;37969;53.132;6.370;2023-03-03T10:29:23;11.63;;;4.93;;
51943;SDS011;37969;53.132;6.370;2023-03-03T10:34:28;8.27;;;4.53;;
51943;SDS011;37969;53.132;6.370;2023-03-03T10:37:06;8.95;;;3.08;;
51943;SDS011;37969;53.132;6.370;2023-03-03T10:42:16;5.45;;;1.40;;
51943;SDS011;37969;53.132;6.370;2023-03-03T10:44:50;2.47;;;1.60;;
51943;SDS011;37969;53.132;6.370;2023-03-03T10:47:22;7.88;;;1.73;;
51943;SDS011;37969;53.132;6.370;2023-03-03T10:52:21;6.40;;;1.25;;
51943;SDS011;37969;53.132;6.370;2023-03-03T10:55:02;7.30;;;1.55;;
51943;SDS011;37969;53.132;6.370;2023-03-03T10:57:34;6.40;;;1.25;;
51943;SDS011;37969;53.132;6.370;2023-03-03T11:00:07;5.90;;;1.25;;
51943;SDS011;37969;53.132;6.370;2023-03-03T11:02:48;3.88;;;1.40;;
51943;SDS011;37969;53.132;6.370;2023-03-03T11:10:17;6.68;;;1.58;;
51943;SDS011;37969;53.132;6.370;2023-03-03T11:15:18;6.75;;;1.27;;
51943;SDS011;37969;53.132;6.370;2023-03-03T11:17:56;8.40;;;1.30;;
51943;SDS011;37969;53.132;6.370;2023-03-03T11:20:29;5.32;;;1.00;;
51943;SDS011;37969;53.132;6.370;2023-03-03T11:22:59;3.00;;;1.10;;
51943;SDS011;37969;53.132;6.370;2023-03-03T11:27:59;3.40;;;1.08;;
51943;SDS011;37969;53.132;6.370;2023-03-03T11:30:40;4.65;;;1.02;;
51943;SDS011;37969;53.132;6.370;2023-03-03T11:33:18;5.18;;;1.40;;
51943;SDS011;37969;53.132;6.370;2023-03-03T11:38:33;4.45;;;1.25;;
51943;SDS011;37969;53.132;6.370;2023-03-03T11:41:07;5.30;;;1.00;;
51943;SDS011;37969;53.132;6.370;2023-03-03T11:43:44;4.05;;;1.23;;
51943;SDS011;37969;53.132;6.370;2023-03-03T11:46:14;3.67;;;1.23;;
51943;SDS011;37969;53.132;6.370;2023-03-03T11:51:11;3.42;;;1.08;;
51943;SDS011;37969;53.132;6.370;2023-03-03T11:58:44;5.18;;;1.08;;
51943;SDS011;37969;53.132;6.370;2023-03-03T12:01:15;4.88;;;1.05;;
51943;SDS011;37969;53.132;6.370;2023-03-03T12:03:44;4.63;;;0.82;;
51943;SDS011;37969;53.132;6.370;2023-03-03T12:06:32;9.63;;;1.77;;
51943;SDS011;37969;53.132;6.370;2023-03-03T12:11:54;6.70;;;1.50;;
51943;SDS011;37969;53.132;6.370;2023-03-03T12:24:18;8.68;;;1.25;;
51943;SDS011;37969;53.132;6.370;2023-03-03T12:29:23;5.57;;;1.25;;
51943;SDS011;37969;53.132;6.370;2023-03-03T12:32:03;4.18;;;1.10;;
51943;SDS011;37969;53.132;6.370;2023-03-03T12:34:38;6.28;;;1.15;;
51943;SDS011;37969;53.132;6.370;2023-03-03T12:39:44;10.02;;;2.20;;
51943;SDS011;37969;53.132;6.370;2023-03-03T12:42:15;8.05;;;1.75;;
51943;SDS011;37969;53.132;6.370;2023-03-03T12:44:47;5.65;;;1.25;;
51943;SDS011;37969;53.132;6.370;2023-03-03T12:47:16;6.18;;;1.50;;
51943;SDS011;37969;53.132;6.370;2023-03-03T12:52:34;11.43;;;1.70;;
51943;SDS011;37969;53.132;6.370;2023-03-03T12:55:07;9.15;;;1.65;;
51943;SDS011;37969;53.132;6.370;2023-03-03T12:57:39;6.82;;;1.33;;
51943;SDS011;37969;53.132;6.370;2023-03-03T13:02:38;9.98;;;1.80;;
51943;SDS011;37969;53.132;6.370;2023-03-03T13:05:26;12.57;;;2.33;;
51943;SDS011;37969;53.132;6.370;2023-03-03T13:07:58;16.23;;;2.30;;
51943;SDS011;37969;53.132;6.370;2023-03-03T13:10:38;8.23;;;1.73;;
51943;SDS011;37969;53.132;6.370;2023-03-03T13:13:10;8.55;;;1.80;;
51943;SDS011;37969;53.132;6.370;2023-03-03T13:15:43;18.10;;;2.00;;
51943;SDS011;37969;53.132;6.370;2023-03-03T13:23:06;10.48;;;1.98;;
51943;SDS011;37969;53.132;6.370;2023-03-03T13:25:38;13.98;;;2.33;;
51943;SDS011;37969;53.132;6.370;2023-03-03T13:30:42;18.35;;;2.70;;
51943;SDS011;37969;53.132;6.370;2023-03-03T13:35:45;10.68;;;2.28;;
51943;SDS011;37969;53.132;6.370;2023-03-03T13:38:17;16.05;;;2.50;;
51943;SDS011;37969;53.132;6.370;2023-03-03T13:40:47;13.18;;;3.10;;
51943;SDS011;37969;53.132;6.370;2023-03-03T13:48:30;26.85;;;3.97;;
51943;SDS011;37969;53.132;6.370;2023-03-03T13:51:09;20.85;;;4.35;;
51943;SDS011;37969;53.132;6.370;2023-03-03T13:53:44;21.23;;;3.95;;
51943;SDS011;37969;53.132;6.370;2023-03-03T13:56:31;44.40;;;7.45;;
51943;SDS011;37969;53.132;6.370;2023-03-03T13:59:07;32.33;;;5.63;;
51943;SDS011;37969;53.132;6.370;2023-03-03T14:01:49;23.50;;;4.35;;
51943;SDS011;37969;53.132;6.370;2023-03-03T14:06:46;29.23;;;7.20;;
51943;SDS011;37969;53.132;6.370;2023-03-03T14:12:03;26.23;;;6.70;;
51943;SDS011;37969;53.132;6.370;2023-03-03T14:14:39;25.33;;;5.18;;
51943;SDS011;37969;53.132;6.370;2023-03-03T14:17:10;21.75;;;4.68;;
51943;SDS011;37969;53.132;6.370;2023-03-03T14:19:38;21.58;;;4.10;;
51943;SDS011;37969;53.132;6.370;2023-03-03T14:22:16;22.40;;;4.50;;
51943;SDS011;37969;53.132;6.370;2023-03-03T14:24:55;28.25;;;4.10;;
51943;SDS011;37969;53.132;6.370;2023-03-03T14:27:25;23.75;;;4.85;;
51943;SDS011;37969;53.132;6.370;2023-03-03T14:29:52;28.42;;;3.47;;
51943;SDS011;37969;53.132;6.370;2023-03-03T14:32:20;25.90;;;3.70;;
51943;SDS011;37969;53.132;6.370;2023-03-03T14:34:55;35.63;;;4.80;;
51943;SDS011;37969;53.132;6.370;2023-03-03T14:37:24;28.92;;;3.70;;
51943;SDS011;37969;53.132;6.370;2023-03-03T14:40:12;21.45;;;3.42;;
51943;SDS011;37969;53.132;6.370;2023-03-03T14:42:37;24.92;;;3.47;;
51943;SDS011;37969;53.132;6.370;2023-03-03T14:45:14;26.23;;;3.38;;
51943;SDS011;37969;53.132;6.370;2023-03-03T14:47:43;22.83;;;3.85;;
51943;SDS011;37969;53.132;6.370;2023-03-03T14:50:30;22.60;;;3.63;;
51943;SDS011;37969;53.132;6.370;2023-03-03T14:53:05;25.65;;;3.75;;
51943;SDS011;37969;53.132;6.370;2023-03-03T14:55:35;28.20;;;4.97;;
51943;SDS011;37969;53.132;6.370;2023-03-03T14:58:02;23.63;;;3.42;;
51943;SDS011;37969;53.132;6.370;2023-03-03T15:00:30;33.80;;;5.13;;
51943;SDS011;37969;53.132;6.370;2023-03-03T15:03:01;22.40;;;3.97;;
51943;SDS011;37969;53.132;6.370;2023-03-03T15:05:30;29.42;;;4.22;;
51943;SDS011;37969;53.132;6.370;2023-03-03T15:08:07;27.83;;;3.72;;
51943;SDS011;37969;53.132;6.370;2023-03-03T15:10:37;27.45;;;4.13;;
51943;SDS011;37969;53.132;6.370;2023-03-03T15:13:09;26.67;;;4.03;;
51943;SDS011;37969;53.132;6.370;2023-03-03T15:15:46;20.33;;;3.70;;
51943;SDS011;37969;53.132;6.370;2023-03-03T15:18:14;28.63;;;4.18;;
51943;SDS011;37969;53.132;6.370;2023-03-03T15:20:41;25.45;;;3.72;;
51943;SDS011;37969;53.132;6.370;2023-03-03T15:23:23;25.65;;;3.88;;
51943;SDS011;37969;53.132;6.370;2023-03-03T15:26:14;28.20;;;4.32;;
51943;SDS011;37969;53.132;6.370;2023-03-03T15:28:47;20.25;;;4.10;;
51943;SDS011;37969;53.132;6.370;2023-03-03T15:36:11;33.42;;;4.45;;
51943;SDS011;37969;53.132;6.370;2023-03-03T15:38:42;25.27;;;3.63;;
51943;SDS011;37969;53.132;6.370;2023-03-03T15:43:42;24.45;;;3.90;;
51943;SDS011;37969;53.132;6.370;2023-03-03T15:46:20;35.13;;;8.23;;
51943;SDS011;37969;53.132;6.370;2023-03-03T15:48:52;33.05;;;5.05;;
51943;SDS011;37969;53.132;6.370;2023-03-03T15:51:45;32.30;;;4.40;;
51943;SDS011;37969;53.132;6.370;2023-03-03T15:56:57;27.85;;;4.43;;
51943;SDS011;37969;53.132;6.370;2023-03-03T15:59:34;27.15;;;3.97;;
51943;SDS011;37969;53.132;6.370;2023-03-03T16:04:38;30.05;;;3.90;;
51943;SDS011;37969;53.132;6.370;2023-03-03T16:07:13;30.13;;;4.40;;
51943;SDS011;37969;53.132;6.370;2023-03-03T16:09:55;31.77;;;3.78;;
51943;SDS011;37969;53.132;6.370;2023-03-03T16:17:50;28.15;;;4.13;;
51943;SDS011;37969;53.132;6.370;2023-03-03T16:20:21;27.77;;;4.70;;
51943;SDS011;37969;53.132;6.370;2023-03-03T16:25:27;25.30;;;4.45;;
51943;SDS011;37969;53.132;6.370;2023-03-03T16:27:58;34.70;;;4.30;;
51943;SDS011;37969;53.132;6.370;2023-03-03T16:35:32;34.63;;;5.18;;
51943;SDS011;37969;53.132;6.370;2023-03-03T16:38:01;29.27;;;5.13;;
51943;SDS011;37969;53.132;6.370;2023-03-03T16:40:31;31.58;;;4.22;;
51943;SDS011;37969;53.132;6.370;2023-03-03T16:43:00;23.58;;;4.88;;
51943;SDS011;37969;53.132;6.370;2023-03-03T16:45:32;32.63;;;4.45;;
51943;SDS011;37969;53.132;6.370;2023-03-03T16:48:07;33.45;;;4.40;;
51943;SDS011;37969;53.132;6.370;2023-03-03T16:53:16;30.77;;;4.30;;
51943;SDS011;37969;53.132;6.370;2023-03-03T16:55:47;33.55;;;4.45;;